Terminal Aerodrome Forecast
Issued by NWS San Angelo, TX

Home | Current Version | Previous Version | Text Only | Print | Product List | Glossary On
Versions: 1 2 3 4 5 6 7 8 9 10 11 12 13 14 15 16 17 18
070
FTUS44 KSJT 231855 AAA
TAFSJT
TAF AMD
KSJT 231855Z 2319/2418 17022G32KT P6SM BKN035
     FM232000 17025G35KT P6SM SCT050
     FM240000 17025G35KT P6SM SCT250
     FM240500 19013G22KT P6SM VCTS BKN035CB
     FM240800 24013KT P6SM SCT050
     FM241500 25023G33KT P6SM SKC=

USA.gov is the U.S. government's official web portal to all federal, state and local government web resources and services.